createdAt,value
2024-01-25T00:00:00.093Z,4.6
2024-01-25T00:05:00.403Z,5.3
2024-01-25T00:10:00.144Z,4.6
2024-01-25T00:15:00.148Z,5
2024-01-25T00:20:00.304Z,5.4
2024-01-25T00:25:00.127Z,4.8
2024-01-25T00:30:00.130Z,4.7
2024-01-25T00:35:00.324Z,4.6
2024-01-25T00:40:00.199Z,5.3
2024-01-25T00:45:00.090Z,5.6
2024-01-25T00:50:00.175Z,5.1
2024-01-25T00:55:00.151Z,5.2
2024-01-25T01:00:00.101Z,5.8
2024-01-25T01:05:00.367Z,5.1
2024-01-25T01:10:00.126Z,5.5
2024-01-25T01:15:00.146Z,5.3
2024-01-25T01:20:00.435Z,5.5
2024-01-25T01:25:00.092Z,5.5
2024-01-25T01:30:00.116Z,5.3
2024-01-25T01:35:00.338Z,5.4
2024-01-25T01:40:00.199Z,5.3
2024-01-25T01:45:00.090Z,5.8
2024-01-25T01:50:00.350Z,5.1
2024-01-25T01:55:00.204Z,5.6
2024-01-25T02:00:00.085Z,5.5
2024-01-25T02:05:00.145Z,6.1
2024-01-25T02:10:00.101Z,5.5
2024-01-25T02:15:00.156Z,5.8
2024-01-25T02:20:00.542Z,5.1
2024-01-25T02:25:00.088Z,5
2024-01-25T02:30:00.086Z,5.7
2024-01-25T02:35:00.217Z,5.7
2024-01-25T02:40:00.149Z,5.4
2024-01-25T02:45:00.080Z,5.1
2024-01-25T02:50:00.159Z,5.3
2024-01-25T02:55:00.139Z,5.3
2024-01-25T03:00:00.072Z,5.2
2024-01-25T03:05:00.145Z,4.8
2024-01-25T03:10:00.096Z,4.9
2024-01-25T03:15:00.128Z,5.4
2024-01-25T03:20:00.152Z,5.2
2024-01-25T03:25:00.095Z,5.8
2024-01-25T03:30:00.111Z,5.3
2024-01-25T03:35:00.169Z,5.2
2024-01-25T03:40:00.072Z,4.8
2024-01-25T03:45:00.071Z,5.4
2024-01-25T03:50:00.218Z,5.3
2024-01-25T03:55:00.185Z,5.2
2024-01-25T04:00:00.074Z,5.4
2024-01-25T04:05:00.091Z,4.9
2024-01-25T04:10:00.182Z,5
2024-01-25T04:15:00.177Z,4.7
2024-01-25T04:20:00.229Z,4.8
2024-01-25T04:25:00.090Z,5
2024-01-25T04:30:00.091Z,4.7
2024-01-25T04:35:00.218Z,4.5
2024-01-25T04:40:00.218Z,4.5
2024-01-25T04:45:00.067Z,4.7
2024-01-25T04:50:00.268Z,4.5
2024-01-25T04:55:00.180Z,4.2
2024-01-25T05:00:00.082Z,4.6
2024-01-25T05:05:00.272Z,4
2024-01-25T05:10:00.157Z,4.9
2024-01-25T05:15:00.172Z,4.3
2024-01-25T05:20:00.207Z,4.7
2024-01-25T05:25:00.106Z,3.8
2024-01-25T05:30:00.075Z,3.8
2024-01-25T05:35:00.187Z,4.3
2024-01-25T05:40:00.100Z,3.8
2024-01-25T05:45:00.093Z,3.7
2024-01-25T05:50:00.165Z,4.2
2024-01-25T05:55:02.192Z,3.9
2024-01-25T06:00:00.136Z,4
2024-01-25T06:05:00.232Z,3.8
2024-01-25T06:10:00.120Z,4.1
2024-01-25T06:15:00.161Z,3.9
2024-01-25T06:20:00.380Z,3.3
2024-01-25T06:25:00.101Z,4.1
2024-01-25T06:30:00.091Z,3.7
2024-01-25T06:35:00.281Z,3.9
2024-01-25T06:40:00.136Z,3.7
2024-01-25T06:45:00.088Z,4
2024-01-25T06:50:00.305Z,3.4
2024-01-25T06:55:00.162Z,3.9
2024-01-25T07:00:00.112Z,3.9
2024-01-25T07:05:00.201Z,4
2024-01-25T07:10:00.104Z,3.5
2024-01-25T07:15:00.128Z,3.8
2024-01-25T07:20:00.171Z,4.1
2024-01-25T07:25:00.126Z,3.6
2024-01-25T07:30:00.092Z,3.7
2024-01-25T07:35:00.172Z,3.7
2024-01-25T07:40:00.121Z,3.5
2024-01-25T07:45:00.083Z,3.9
2024-01-25T07:50:00.206Z,3.6
2024-01-25T07:55:01.172Z,3.9
2024-01-25T08:00:00.123Z,4.1
2024-01-25T08:05:00.189Z,4.2
2024-01-25T08:10:00.097Z,3.6
2024-01-25T08:15:00.174Z,3.5
2024-01-25T08:20:00.127Z,3.7
2024-01-25T08:25:00.104Z,3.5
2024-01-25T08:30:00.108Z,3.5
2024-01-25T08:35:00.815Z,3.6
2024-01-25T08:40:00.227Z,3.4
2024-01-25T08:45:00.098Z,3.9
2024-01-25T08:50:00.475Z,3.7
2024-01-25T08:55:00.141Z,3.5
2024-01-25T09:00:00.088Z,3.8
2024-01-25T09:05:00.296Z,3.5
2024-01-25T09:10:00.201Z,4.1
2024-01-25T09:15:00.153Z,3.6
2024-01-25T09:20:00.302Z,3.8
2024-01-25T09:25:00.119Z,3.7
2024-01-25T09:30:00.097Z,4.3
2024-01-25T09:35:00.285Z,4
2024-01-25T09:40:00.327Z,3.9
2024-01-25T09:45:00.079Z,3.8
2024-01-25T09:50:00.222Z,4.2
2024-01-25T09:55:00.179Z,4.2
2024-01-25T10:00:00.079Z,4.1
2024-01-25T10:05:00.163Z,3.8
2024-01-25T10:10:00.164Z,4.4
2024-01-25T10:15:00.110Z,3.6
2024-01-25T10:20:00.318Z,3.7
2024-01-25T10:25:00.172Z,4.5
2024-01-25T10:30:00.115Z,4.2
2024-01-25T10:35:00.162Z,4.2
2024-01-25T10:40:00.116Z,4.3
2024-01-25T10:45:00.067Z,3.8
2024-01-25T10:50:00.202Z,4.6
2024-01-25T10:55:00.172Z,4.1
2024-01-25T11:00:00.070Z,4.4
2024-01-25T11:05:00.269Z,4.1
2024-01-25T11:10:00.240Z,3.6
2024-01-25T11:15:00.126Z,4.2
2024-01-25T11:20:00.113Z,4.2
2024-01-25T11:25:00.132Z,3.9
2024-01-25T11:30:00.105Z,4.3
2024-01-25T11:35:00.343Z,3.8
2024-01-25T11:40:00.125Z,3.9
2024-01-25T11:45:00.084Z,4
2024-01-25T11:50:00.192Z,4.2
2024-01-25T11:55:00.188Z,4.6
2024-01-25T12:00:00.083Z,4.1
2024-01-25T12:05:00.142Z,4.4
2024-01-25T12:10:00.163Z,4.1
2024-01-25T12:15:00.109Z,4.2
2024-01-25T12:20:00.223Z,4.4
2024-01-25T12:25:00.770Z,4
2024-01-25T12:30:00.095Z,4.2
2024-01-25T12:35:00.182Z,4.3
2024-01-25T12:40:00.219Z,4
2024-01-25T12:45:00.078Z,4
2024-01-25T12:50:00.114Z,3.6
2024-01-25T12:55:00.161Z,3.7
2024-01-25T13:00:00.099Z,4
2024-01-25T13:05:00.173Z,3.5
2024-01-25T13:10:00.101Z,3.8
2024-01-25T13:15:00.120Z,3.4
2024-01-25T13:20:00.078Z,3.3
2024-01-25T13:25:00.161Z,3.7
2024-01-25T13:30:00.121Z,3.7
2024-01-25T13:35:00.228Z,3.5
2024-01-25T13:40:00.084Z,3.1
2024-01-25T13:45:00.071Z,3.2
2024-01-25T13:50:00.080Z,3.3
2024-01-25T13:55:00.163Z,3.1
2024-01-25T14:00:00.081Z,3.3
2024-01-25T14:05:00.085Z,2.9
2024-01-25T14:10:00.102Z,3.2
2024-01-25T14:15:00.131Z,2.9
2024-01-25T14:20:00.173Z,2.9
2024-01-25T14:25:00.109Z,3.1
2024-01-25T14:30:00.076Z,2.8
2024-01-25T14:35:00.296Z,3.4
2024-01-25T14:40:06.492Z,3.1
2024-01-25T14:45:00.085Z,3.2
2024-01-25T14:50:00.101Z,3.4
2024-01-25T14:55:00.231Z,3
2024-01-25T15:00:00.089Z,2.7
2024-01-25T15:05:00.144Z,2.9
2024-01-25T15:10:01.950Z,2.8
2024-01-25T15:15:00.148Z,3
2024-01-25T15:20:00.168Z,3.6
2024-01-25T15:25:00.131Z,3.2
2024-01-25T15:30:00.099Z,2.9
2024-01-25T15:35:00.219Z,2.8
2024-01-25T15:40:00.123Z,3.7
2024-01-25T15:45:00.097Z,4.1
2024-01-25T15:50:00.090Z,4.1
2024-01-25T15:55:00.176Z,3.8
2024-01-25T16:00:00.098Z,6.4
2024-01-25T16:05:00.126Z,4.5
2024-01-25T16:10:00.120Z,4.4
2024-01-25T16:15:00.127Z,5
2024-01-25T16:20:00.154Z,4.4
2024-01-25T16:25:00.102Z,4.6
2024-01-25T16:30:00.092Z,5.6
2024-01-25T16:35:00.274Z,15.1
2024-01-25T16:40:00.109Z,27.8
2024-01-25T16:45:00.072Z,14
2024-01-25T16:50:00.250Z,9
2024-01-25T16:55:00.207Z,20
2024-01-25T17:00:00.067Z,10.6
2024-01-25T17:05:00.189Z,6.8
2024-01-25T17:10:00.115Z,5.6
2024-01-25T17:15:00.156Z,5.3
2024-01-25T17:20:02.738Z,5.3
2024-01-25T17:25:00.082Z,5.6
2024-01-25T17:30:00.100Z,6
2024-01-25T17:35:00.162Z,5.9
2024-01-25T17:40:00.190Z,5.5
2024-01-25T17:45:00.071Z,4.8
2024-01-25T17:50:00.240Z,4.9
2024-01-25T17:55:00.126Z,5
2024-01-25T18:00:00.102Z,4.9
2024-01-25T18:05:00.145Z,5.4
2024-01-25T18:10:00.093Z,7.5
2024-01-25T18:15:00.106Z,7
2024-01-25T18:20:02.135Z,6.6
2024-01-25T18:25:00.126Z,6.3
2024-01-25T18:30:00.166Z,7.7
2024-01-25T18:35:00.273Z,8.1
2024-01-25T18:40:00.188Z,7.2
2024-01-25T18:45:00.077Z,6.6
2024-01-25T18:50:00.214Z,6.3
2024-01-25T18:55:00.136Z,6.7
2024-01-25T19:00:00.076Z,6.9
2024-01-25T19:05:00.108Z,6.8
2024-01-25T19:10:00.145Z,6.8
2024-01-25T19:15:00.111Z,6.7
2024-01-25T19:20:00.153Z,6.3
2024-01-25T19:25:00.081Z,6
2024-01-25T19:30:00.096Z,7.4
2024-01-25T19:35:00.194Z,6.2
2024-01-25T19:40:00.139Z,6.2
2024-01-25T19:45:00.082Z,6.1
2024-01-25T19:50:00.079Z,6.4
2024-01-25T19:55:00.114Z,5.6
2024-01-25T20:00:00.095Z,7.4
2024-01-25T20:05:00.104Z,6.2
2024-01-25T20:10:00.196Z,6.1
2024-01-25T20:15:00.168Z,5.8
2024-01-25T20:20:00.269Z,5.5
2024-01-25T20:25:00.111Z,5.8
2024-01-25T20:30:00.087Z,5.8
2024-01-25T20:35:00.396Z,5.6
2024-01-25T20:40:00.418Z,6.1
2024-01-25T20:45:00.115Z,6.2
2024-01-25T20:50:00.241Z,6.3
2024-01-25T20:55:00.224Z,5.9
2024-01-25T21:00:00.088Z,5.6
2024-01-25T21:05:01.221Z,6
2024-01-25T21:10:00.154Z,5.4
2024-01-25T21:15:00.117Z,5.8
2024-01-25T21:20:00.294Z,5.9
2024-01-25T21:25:00.137Z,5.4
2024-01-25T21:30:00.094Z,6.1
2024-01-25T21:35:00.283Z,6.3
2024-01-25T21:40:00.091Z,6.3
2024-01-25T21:45:00.082Z,6.5
2024-01-25T21:50:00.162Z,7.2
2024-01-25T21:55:00.190Z,6.3
2024-01-25T22:00:00.091Z,6.6
2024-01-25T22:05:00.084Z,5.5
2024-01-25T22:10:00.148Z,5.9
2024-01-25T22:15:00.144Z,6.2
2024-01-25T22:20:00.274Z,5.1
2024-01-25T22:25:00.128Z,5.5
2024-01-25T22:30:00.082Z,6.5
2024-01-25T22:35:00.334Z,5.3
2024-01-25T22:40:00.199Z,5.8
2024-01-25T22:45:00.147Z,5.9
2024-01-25T22:50:00.075Z,5.9
2024-01-25T22:55:00.288Z,6
2024-01-25T23:00:00.096Z,5.9
2024-01-25T23:05:00.075Z,6.2
2024-01-25T23:10:00.098Z,6.3
2024-01-25T23:15:00.096Z,5.8
2024-01-25T23:20:00.096Z,5.8
2024-01-25T23:25:00.095Z,5.7
2024-01-25T23:30:00.080Z,5.9
2024-01-25T23:35:00.171Z,4.9
2024-01-25T23:40:00.104Z,4.9
2024-01-25T23:45:00.092Z,5.8
2024-01-25T23:50:00.280Z,5.5
2024-01-25T23:55:00.228Z,4.8
